GLO1335 SBFI-SBGL
Flight info
| Callsign | GLO1335 |
|---|---|
| Flight time | N/A |
| Altitude | FL350 |
| Route | KAMIL UM548 KOXAG UM400 KOLBI |
| Aircraft | B738/M-S/N |
Departure
| Time | 2026-04-30 21:54 |
|---|---|
| Airport | Cataratas International Airport (SBFI) |
Arrival
| Time | N/A |
|---|---|
| Airport | Rio Galeão – Tom Jobim International Airport (SBGL) |
| Time | Latitude | Longitude | Altitude | Speed | Heading |
|---|---|---|---|---|---|
| 2026-04-30 21:43 | -25.59704 | -54.48912 | 794 ft | 0 kts | 220° |
| 2026-04-30 21:46 | -25.59703 | -54.48911 | 794 ft | 1 kts | 220° |
| 2026-04-30 21:46 | -25.59692 | -54.48901 | 794 ft | 3 kts | 220° |
| 2026-04-30 21:47 | -25.59678 | -54.48887 | 794 ft | 3 kts | 220° |
| 2026-04-30 21:47 | -25.59664 | -54.48874 | 794 ft | 3 kts | 220° |
| 2026-04-30 21:47 | -25.59650 | -54.48861 | 794 ft | 0 kts | 220° |
| 2026-04-30 21:48 | -25.59653 | -54.48865 | 794 ft | 1 kts | 231° |
| 2026-04-30 21:48 | -25.59655 | -54.48875 | 794 ft | 2 kts | 264° |
| 2026-04-30 21:48 | -25.59650 | -54.48887 | 794 ft | 2 kts | 307° |
| 2026-04-30 21:49 | -25.59636 | -54.48898 | 794 ft | 3 kts | 325° |
| 2026-04-30 21:49 | -25.59614 | -54.48915 | 794 ft | 5 kts | 325° |
| 2026-04-30 21:49 | -25.59584 | -54.48938 | 794 ft | 6 kts | 325° |
| 2026-04-30 21:49 | -25.59548 | -54.48951 | 794 ft | 5 kts | 22° |
| 2026-04-30 21:50 | -25.59518 | -54.48922 | 794 ft | 6 kts | 42° |
| 2026-04-30 21:50 | -25.59482 | -54.48906 | 794 ft | 5 kts | 330° |
| 2026-04-30 21:50 | -25.59454 | -54.48938 | 794 ft | 6 kts | 310° |
| 2026-04-30 21:50 | -25.59423 | -54.48979 | 794 ft | 8 kts | 310° |
| 2026-04-30 21:51 | -25.59386 | -54.49028 | 794 ft | 9 kts | 310° |
| 2026-04-30 21:51 | -25.59344 | -54.49084 | 794 ft | 10 kts | 310° |
| 2026-04-30 21:51 | -25.59296 | -54.49146 | 794 ft | 11 kts | 310° |
| 2026-04-30 21:51 | -25.59245 | -54.49214 | 794 ft | 12 kts | 310° |
| 2026-04-30 21:52 | -25.59189 | -54.49287 | 794 ft | 13 kts | 310° |
| 2026-04-30 21:52 | -25.59131 | -54.49364 | 794 ft | 14 kts | 310° |
| 2026-04-30 21:52 | -25.59071 | -54.49442 | 794 ft | 12 kts | 310° |
| 2026-04-30 21:52 | -25.59013 | -54.49496 | 794 ft | 10 kts | 347° |
| 2026-04-30 21:53 | -25.58954 | -54.49516 | 794 ft | 8 kts | 317° |
| 2026-04-30 21:53 | -25.58965 | -54.49557 | 794 ft | 6 kts | 201° |
| 2026-04-30 21:53 | -25.58995 | -54.49544 | 794 ft | 4 kts | 130° |
| 2026-04-30 21:53 | -25.59122 | -54.49377 | 794 ft | 65 kts | 130° |
| 2026-04-30 21:54 | -25.59575 | -54.48784 | 794 ft | 133 kts | 129° |
| 2026-04-30 21:54 | -25.60262 | -54.47848 | 933 ft | 171 kts | 128° |
| 2026-04-30 21:54 | -25.61045 | -54.46786 | 1462 ft | 190 kts | 129° |
| 2026-04-30 21:54 | -25.61981 | -54.45585 | 1999 ft | 222 kts | 130° |
| 2026-04-30 21:55 | -25.63007 | -54.44294 | 3134 ft | 217 kts | 129° |
| 2026-04-30 21:55 | -25.64007 | -54.43035 | 4130 ft | 223 kts | 128° |
| 2026-04-30 21:55 | -25.64887 | -54.41922 | 4781 ft | 231 kts | 129° |
| 2026-04-30 21:55 | -25.66090 | -54.40332 | 5806 ft | 239 kts | 125° |
| 2026-04-30 21:56 | -25.66771 | -54.38580 | 6255 ft | 260 kts | 96° |
| 2026-04-30 21:56 | -25.66646 | -54.36542 | 6786 ft | 277 kts | 77° |
| 2026-04-30 21:56 | -25.66199 | -54.34443 | 7735 ft | 280 kts | 74° |
| 2026-04-30 21:56 | -25.65774 | -54.32327 | 8708 ft | 283 kts | 75° |
| 2026-04-30 21:57 | -25.65383 | -54.30198 | 9661 ft | 285 kts | 75° |
| 2026-04-30 21:57 | -25.65008 | -54.28029 | 10525 ft | 291 kts | 76° |
| 2026-04-30 21:57 | -25.64777 | -54.26661 | 10954 ft | 299 kts | 77° |
| 2026-04-30 21:57 | -25.64304 | -54.23694 | 11370 ft | 327 kts | 77° |
| 2026-04-30 21:58 | -25.63873 | -54.20935 | 12001 ft | 338 kts | 77° |
| 2026-04-30 21:58 | -25.63496 | -54.18341 | 12761 ft | 343 kts | 78° |
| 2026-04-30 21:58 | -25.63316 | -54.17059 | 13117 ft | 346 kts | 78° |
| 2026-04-30 21:58 | -25.62791 | -54.13061 | 14201 ft | 353 kts | 79° |
| 2026-04-30 21:59 | -25.62458 | -54.10336 | 14895 ft | 358 kts | 81° |
| 2026-04-30 21:59 | -25.62151 | -54.07587 | 15516 ft | 364 kts | 81° |
| 2026-04-30 21:59 | -25.61843 | -54.04809 | 16202 ft | 366 kts | 81° |
| 2026-04-30 22:00 | -25.61212 | -53.99158 | 17494 ft | 374 kts | 81° |
| 2026-04-30 22:00 | -25.60563 | -53.93406 | 18723 ft | 380 kts | 81° |
| 2026-04-30 22:00 | -25.60235 | -53.90503 | 19309 ft | 384 kts | 80° |
| 2026-04-30 22:01 | -25.59904 | -53.87560 | 19885 ft | 387 kts | 81° |
| 2026-04-30 22:01 | -25.59581 | -53.84602 | 20445 ft | 390 kts | 80° |
| 2026-04-30 22:01 | -25.59255 | -53.81602 | 20993 ft | 393 kts | 80° |
| 2026-04-30 22:01 | -25.58940 | -53.78597 | 21525 ft | 396 kts | 82° |
| 2026-04-30 22:02 | -25.58822 | -53.75562 | 22221 ft | 396 kts | 85° |
| 2026-04-30 22:02 | -25.58799 | -53.72503 | 22626 ft | 401 kts | 86° |
| 2026-04-30 22:02 | -25.58787 | -53.69395 | 23117 ft | 404 kts | 86° |
| 2026-04-30 22:02 | -25.58782 | -53.66299 | 23574 ft | 407 kts | 86° |
| 2026-04-30 22:03 | -25.58802 | -53.63151 | 24023 ft | 410 kts | 86° |
| 2026-04-30 22:03 | -25.58818 | -53.59999 | 24463 ft | 412 kts | 86° |
| 2026-04-30 22:03 | -25.58831 | -53.56815 | 24888 ft | 415 kts | 86° |
| 2026-04-30 22:03 | -25.58847 | -53.53584 | 25138 ft | 422 kts | 86° |
| 2026-04-30 22:04 | -25.58861 | -53.50340 | 25632 ft | 421 kts | 86° |
| 2026-04-30 22:04 | -25.58881 | -53.47111 | 26114 ft | 422 kts | 86° |
| 2026-04-30 22:04 | -25.58930 | -53.40602 | 26953 ft | 425 kts | 85° |
| 2026-04-30 22:05 | -25.58951 | -53.37325 | 27402 ft | 425 kts | 85° |
| 2026-04-30 22:05 | -25.58973 | -53.34074 | 27836 ft | 426 kts | 85° |
| 2026-04-30 22:05 | -25.58991 | -53.30795 | 28265 ft | 426 kts | 85° |
| 2026-04-30 22:05 | -25.59009 | -53.27503 | 28685 ft | 426 kts | 85° |
| 2026-04-30 22:06 | -25.59024 | -53.24745 | 29115 ft | 424 kts | 85° |
| 2026-04-30 22:06 | -25.59054 | -53.17993 | 30535 ft | 411 kts | 85° |
| 2026-04-30 22:06 | -25.59065 | -53.14823 | 30914 ft | 414 kts | 84° |
| 2026-04-30 22:07 | -25.59074 | -53.11626 | 31114 ft | 419 kts | 84° |
| 2026-04-30 22:07 | -25.59058 | -53.08431 | 31636 ft | 417 kts | 85° |
| 2026-04-30 22:07 | -25.59056 | -53.05173 | 31741 ft | 427 kts | 86° |
| 2026-04-30 22:07 | -25.59066 | -53.01865 | 31857 ft | 437 kts | 86° |
| 2026-04-30 22:08 | -25.59075 | -52.94987 | 32074 ft | 456 kts | 86° |
| 2026-04-30 22:08 | -25.59079 | -52.91455 | 32176 ft | 465 kts | 86° |
| 2026-04-30 22:08 | -25.59079 | -52.87826 | 32275 ft | 474 kts | 86° |
| 2026-04-30 22:09 | -25.59081 | -52.84168 | 32522 ft | 477 kts | 86° |
| 2026-04-30 22:09 | -25.59078 | -52.80506 | 32985 ft | 475 kts | 86° |
| 2026-04-30 22:09 | -25.59075 | -52.76964 | 33307 ft | 477 kts | 86° |
| 2026-04-30 22:09 | -25.59069 | -52.73215 | 33724 ft | 476 kts | 85° |
| 2026-04-30 22:10 | -25.59062 | -52.69546 | 34106 ft | 476 kts | 85° |
| 2026-04-30 22:10 | -25.59054 | -52.65877 | 34481 ft | 476 kts | 85° |
| 2026-04-30 22:10 | -25.59044 | -52.62258 | 34841 ft | 476 kts | 85° |
| 2026-04-30 22:10 | -25.59033 | -52.58591 | 34979 ft | 482 kts | 85° |
| 2026-04-30 22:11 | -25.59002 | -52.51025 | 34995 ft | 497 kts | 85° |
| 2026-04-30 22:11 | -25.58995 | -52.47191 | 35006 ft | 504 kts | 86° |
| 2026-04-30 22:12 | -25.59068 | -52.39325 | 35015 ft | 517 kts | 86° |
| 2026-04-30 22:12 | -25.59030 | -52.31293 | 35015 ft | 527 kts | 85° |
| 2026-04-30 22:13 | -25.58982 | -52.23143 | 35014 ft | 534 kts | 85° |
| 2026-04-30 22:13 | -25.58936 | -52.14945 | 35018 ft | 536 kts | 86° |
| 2026-04-30 22:14 | -25.58887 | -52.06661 | 35019 ft | 537 kts | 86° |
| 2026-04-30 22:14 | -25.58833 | -51.98420 | 35019 ft | 537 kts | 86° |
| 2026-04-30 22:15 | -25.58773 | -51.90150 | 35019 ft | 538 kts | 85° |
| 2026-04-30 22:15 | -25.58736 | -51.81891 | 35028 ft | 538 kts | 86° |
| 2026-04-30 22:16 | -25.58668 | -51.73622 | 35032 ft | 538 kts | 86° |
| 2026-04-30 22:17 | -25.58550 | -51.57061 | 35032 ft | 539 kts | 86° |
| 2026-04-30 22:17 | -25.58494 | -51.44662 | 35063 ft | 539 kts | 87° |
| 2026-04-30 22:18 | -25.58454 | -51.32228 | 35064 ft | 540 kts | 86° |
| 2026-04-30 22:19 | -25.58340 | -51.19766 | 35064 ft | 540 kts | 86° |
| 2026-04-30 22:20 | -25.58180 | -51.07320 | 35077 ft | 540 kts | 86° |
| 2026-04-30 22:20 | -25.58025 | -50.94859 | 35076 ft | 541 kts | 86° |
| 2026-04-30 22:21 | -25.57915 | -50.86890 | 35076 ft | 541 kts | 86° |
| 2026-04-30 22:21 | -25.57858 | -50.82471 | 35057 ft | 527 kts | 86° |
| 2026-04-30 22:21 | -25.57796 | -50.78411 | 35077 ft | 531 kts | 86° |
| 2026-04-30 22:22 | -25.57678 | -50.70199 | 35078 ft | 538 kts | 86° |
| 2026-04-30 22:22 | -25.57563 | -50.61897 | 35078 ft | 540 kts | 85° |
| 2026-04-30 22:23 | -25.57436 | -50.53605 | 35078 ft | 540 kts | 86° |
| 2026-04-30 22:23 | -25.57317 | -50.45313 | 35078 ft | 540 kts | 86° |
| 2026-04-30 22:24 | -25.57213 | -50.38046 | 35079 ft | 540 kts | 86° |
| 2026-04-30 22:24 | -25.57103 | -50.31123 | 35079 ft | 540 kts | 86° |
| 2026-04-30 22:25 | -25.56971 | -50.22811 | 35087 ft | 539 kts | 86° |
| 2026-04-30 22:25 | -25.56826 | -50.14890 | 35087 ft | 540 kts | 86° |
| 2026-04-30 22:26 | -25.56542 | -50.02429 | 35088 ft | 539 kts | 84° |
| 2026-04-30 22:27 | -25.56158 | -49.94304 | 35087 ft | 539 kts | 84° |
| 2026-04-30 22:27 | -25.55640 | -49.81872 | 35081 ft | 540 kts | 84° |
| 2026-04-30 22:28 | -25.55102 | -49.69475 | 35080 ft | 540 kts | 84° |
| 2026-04-30 22:29 | -25.54357 | -49.52872 | 35082 ft | 537 kts | 84° |
| 2026-04-30 22:31 | -25.53406 | -49.23818 | 35111 ft | 542 kts | 85° |
| 2026-04-30 22:32 | -25.50914 | -49.03299 | 35122 ft | 538 kts | 75° |
| 2026-04-30 22:33 | -25.47413 | -48.83008 | 35152 ft | 538 kts | 75° |
| 2026-04-30 22:35 | -25.43883 | -48.62723 | 35153 ft | 538 kts | 76° |
| 2026-04-30 22:36 | -25.40420 | -48.42389 | 35135 ft | 540 kts | 76° |
| 2026-04-30 22:37 | -25.37602 | -48.26122 | 35131 ft | 539 kts | 75° |
| 2026-04-30 22:38 | -25.34697 | -48.09941 | 35130 ft | 539 kts | 75° |
| 2026-04-30 22:39 | -25.32495 | -47.97746 | 35123 ft | 540 kts | 75° |
| 2026-04-30 22:40 | -25.28133 | -47.73406 | 35121 ft | 540 kts | 75° |
| 2026-04-30 22:41 | -25.24468 | -47.53157 | 35117 ft | 539 kts | 75° |
| 2026-04-30 22:42 | -25.21636 | -47.37481 | 35032 ft | 517 kts | 78° |
| 2026-04-30 22:43 | -25.20385 | -47.30534 | 35206 ft | 464 kts | 79° |
| 2026-04-30 22:43 | -25.19322 | -47.24623 | 35016 ft | 448 kts | 78° |
| 2026-04-30 22:44 | -25.18160 | -47.18217 | 35000 ft | 461 kts | 78° |
| 2026-04-30 22:45 | -25.15499 | -47.04096 | 35074 ft | 480 kts | 75° |
| 2026-04-30 22:45 | -25.13689 | -46.96946 | 35117 ft | 489 kts | 63° |
| 2026-04-30 22:46 | -25.10811 | -46.90096 | 35115 ft | 501 kts | 59° |
| 2026-04-30 22:47 | -25.04556 | -46.75968 | 35112 ft | 524 kts | 59° |
| 2026-04-30 22:48 | -24.98020 | -46.61475 | 35108 ft | 530 kts | 59° |
| 2026-04-30 22:49 | -24.88325 | -46.39659 | 35208 ft | 531 kts | 59° |
| 2026-04-30 22:51 | -24.78600 | -46.17841 | 35209 ft | 528 kts | 59° |
| 2026-04-30 22:52 | -24.73725 | -46.07022 | 35212 ft | 528 kts | 59° |
| 2026-04-30 22:53 | -24.67186 | -45.92579 | 35212 ft | 529 kts | 59° |
| 2026-04-30 22:53 | -24.62246 | -45.81750 | 35211 ft | 529 kts | 59° |
| 2026-04-30 22:55 | -24.53982 | -45.63774 | 35212 ft | 529 kts | 59° |
| 2026-04-30 22:56 | -24.47427 | -45.49362 | 35211 ft | 529 kts | 60° |
| 2026-04-30 22:57 | -24.39195 | -45.31373 | 35218 ft | 527 kts | 60° |
| 2026-04-30 22:58 | -24.32976 | -45.17852 | 35210 ft | 529 kts | 59° |
| 2026-04-30 22:59 | -24.23105 | -44.96514 | 35206 ft | 529 kts | 60° |